Time;durP1;ratioP1;P1;durP2;ratioP2;P2;SDS_P1;SDS_P2;PMS_P1;PMS_P2;Temp;Humidity;BMP_temperature;BMP_pressure;BME280_temperature;BME280_humidity;BME280_pressure;Samples;Min_cycle;Max_cycle;Signal;HPM_P1;HPM_P2
2021/12/07 00:01:40;;;;;;;18.10;11.77;;;3.90;99.90;;;;;;5053983;28;20512;-83
2021/12/07 00:04:07;;;;;;;18.20;10.77;;;3.90;99.90;;;;;;5053300;28;20045;-84
2021/12/07 00:06:33;;;;;;;18.05;11.02;;;3.90;99.90;;;;;;5053419;28;20043;-84
2021/12/07 00:08:59;;;;;;;18.10;11.27;;;3.80;99.90;;;;;;5053971;28;20079;-83
2021/12/07 00:11:29;;;;;;;18.70;11.98;;;3.80;99.90;;;;;;5053363;28;20051;-83
2021/12/07 00:13:57;;;;;;;18.83;11.95;;;3.80;99.90;;;;;;5053452;28;20048;-83
2021/12/07 00:16:24;;;;;;;17.95;11.05;;;3.80;99.90;;;;;;5053763;28;20048;-83
2021/12/07 00:18:50;;;;;;;18.40;10.70;;;3.80;99.90;;;;;;5053541;28;20047;-83
2021/12/07 00:21:17;;;;;;;17.40;10.85;;;3.70;99.90;;;;;;5053771;28;20123;-83
2021/12/07 00:23:46;;;;;;;17.70;10.63;;;3.70;99.90;;;;;;5051306;28;20036;-83
2021/12/07 00:26:12;;;;;;;18.52;11.45;;;3.60;99.90;;;;;;5053556;28;20041;-83
2021/12/07 00:28:39;;;;;;;19.08;10.98;;;3.60;99.90;;;;;;5036932;28;20583;-83
2021/12/07 00:31:20;;;;;;;17.90;11.18;;;3.60;99.90;;;;;;5053008;28;20041;-83
2021/12/07 00:33:53;;;;;;;17.98;10.77;;;3.50;99.90;;;;;;5036600;28;20044;-83
2021/12/07 00:36:19;;;;;;;15.40;9.02;;;3.40;99.90;;;;;;5036761;28;20040;-83
2021/12/07 00:38:45;;;;;;;17.85;10.45;;;3.40;99.90;;;;;;5053170;28;20486;-83
2021/12/07 00:41:11;;;;;;;16.60;10.38;;;3.30;99.90;;;;;;5053499;28;20101;-83
2021/12/07 00:43:40;;;;;;;18.65;10.90;;;3.30;99.90;;;;;;5052987;28;20048;-84
2021/12/07 00:46:11;;;;;;;18.33;10.68;;;3.20;99.90;;;;;;5036739;28;20051;-83
2021/12/07 00:48:36;;;;;;;16.65;10.38;;;3.20;99.90;;;;;;5046052;28;20044;-84
2021/12/07 00:51:03;;;;;;;19.00;11.32;;;3.20;99.90;;;;;;5070790;28;20071;-83
2021/12/07 00:53:29;;;;;;;18.42;10.93;;;3.10;99.90;;;;;;5072615;28;20032;-83
2021/12/07 00:55:59;;;;;;;18.38;11.25;;;3.10;99.90;;;;;;5061867;28;20116;-83
2021/12/07 00:58:26;;;;;;;17.23;11.13;;;3.00;99.90;;;;;;5052893;28;20051;-83
2021/12/07 01:01:13;;;;;;;17.00;10.02;;;3.00;99.90;;;;;;5036084;28;20036;-83
2021/12/07 01:03:40;;;;;;;17.70;10.63;;;3.00;99.90;;;;;;5035946;28;20393;-82
2021/12/07 01:24:52;;;;;;;19.17;11.10;;;2.70;99.90;;;;;;5050968;28;20070;-83
2021/12/07 01:27:20;;;;;;;17.45;10.70;;;2.70;99.90;;;;;;5051727;28;20052;-83
2021/12/07 01:29:51;;;;;;;19.35;10.98;;;2.70;99.90;;;;;;5030350;28;20119;-81
2021/12/07 01:35:26;;;;;;;17.67;10.70;;;2.70;99.90;;;;;;5064054;28;20408;-83
2021/12/07 01:37:57;;;;;;;16.65;10.40;;;2.70;99.90;;;;;;5078766;28;20447;-82
2021/12/07 01:40:37;;;;;;;16.13;10.32;;;2.70;99.90;;;;;;5040163;28;20033;-83
2021/12/07 01:43:36;;;;;;;19.92;11.60;;;2.60;99.90;;;;;;5038929;28;20044;-83
2021/12/07 01:52:01;;;;;;;19.38;11.57;;;2.60;99.90;;;;;;5038280;28;20045;-83
2021/12/07 01:59:59;;;;;;;19.65;11.48;;;2.50;99.90;;;;;;5039232;28;20053;-83
2021/12/07 02:02:27;;;;;;;18.98;11.60;;;2.60;99.90;;;;;;5039163;28;20063;-83
2021/12/07 02:04:55;;;;;;;19.70;12.52;;;2.50;99.90;;;;;;5038166;28;20045;-83
2021/12/07 02:07:21;;;;;;;16.58;10.43;;;2.50;99.90;;;;;;5039033;28;20045;-83
2021/12/07 02:09:52;;;;;;;19.48;12.30;;;2.50;99.90;;;;;;5038873;28;20041;-83
2021/12/07 02:12:18;;;;;;;19.50;12.73;;;2.50;99.90;;;;;;5038440;28;20032;-83
2021/12/07 02:14:44;;;;;;;19.00;11.43;;;2.50;99.90;;;;;;5038552;28;20079;-83
2021/12/07 02:17:16;;;;;;;20.25;12.23;;;2.50;99.90;;;;;;5038567;28;20586;-83
2021/12/07 02:19:42;;;;;;;16.80;10.65;;;2.50;99.90;;;;;;5038943;28;20033;-82
2021/12/07 02:22:09;;;;;;;18.05;11.38;;;2.50;99.90;;;;;;5039279;28;20041;-83
2021/12/07 02:24:35;;;;;;;19.63;11.98;;;2.40;99.90;;;;;;5041068;28;20055;-83
2021/12/07 02:27:01;;;;;;;18.15;11.43;;;2.50;99.90;;;;;;5058594;28;20040;-83
2021/12/07 02:29:27;;;;;;;16.73;10.85;;;2.40;99.90;;;;;;5041564;28;20052;-83
2021/12/07 02:31:54;;;;;;;16.88;11.07;;;2.40;99.90;;;;;;5041490;28;20123;-83
2021/12/07 02:34:21;;;;;;;16.85;11.10;;;2.40;99.90;;;;;;5040963;28;20047;-83
2021/12/07 02:36:47;;;;;;;16.45;11.05;;;2.40;99.90;;;;;;5041165;28;20036;-84
2021/12/07 02:39:13;;;;;;;17.13;11.07;;;2.40;99.90;;;;;;5041630;28;20039;-83
2021/12/07 02:41:41;;;;;;;17.30;10.30;;;2.40;99.90;;;;;;5058290;28;20040;-84
2021/12/07 02:44:07;;;;;;;16.88;10.98;;;2.40;99.90;;;;;;5056566;28;20504;-83
2021/12/07 02:46:39;;;;;;;16.10;10.27;;;2.40;99.90;;;;;;5040201;28;20519;-83
2021/12/07 02:49:06;;;;;;;14.18;9.63;;;2.40;99.90;;;;;;5038298;28;20696;-84
2021/12/07 02:51:33;;;;;;;17.00;10.93;;;2.30;99.90;;;;;;5038639;28;20043;-83
2021/12/07 02:53:58;;;;;;;15.70;10.73;;;2.30;99.90;;;;;;5054780;28;20036;-83
2021/12/07 02:56:24;;;;;;;16.00;10.30;;;2.40;99.90;;;;;;5054250;28;20086;-83
2021/12/07 02:58:55;;;;;;;16.25;10.48;;;2.40;99.90;;;;;;5038684;28;20028;-83
2021/12/07 03:01:26;;;;;;;15.90;10.45;;;2.40;99.90;;;;;;5038776;28;20049;-83
2021/12/07 03:04:02;;;;;;;17.23;10.52;;;2.30;99.90;;;;;;5054330;28;20440;-84
2021/12/07 03:06:47;;;;;;;16.63;11.02;;;2.30;99.90;;;;;;5055127;28;20131;-82
2021/12/07 03:28:24;;;;;;;23.35;13.48;;;2.20;99.90;;;;;;5054873;28;20049;-83
2021/12/07 03:30:50;;;;;;;21.48;14.00;;;2.10;99.90;;;;;;5037995;28;20041;-83
2021/12/07 03:33:16;;;;;;;22.33;13.70;;;2.10;99.90;;;;;;5053887;28;20048;-83
2021/12/07 03:35:42;;;;;;;21.48;13.40;;;2.10;99.90;;;;;;5053899;28;20679;-83
2021/12/07 03:38:09;;;;;;;21.10;12.98;;;2.10;99.90;;;;;;5053991;28;20045;-83
2021/12/07 03:40:36;;;;;;;20.83;13.52;;;2.10;99.90;;;;;;5053585;28;20037;-83
2021/12/07 03:43:04;;;;;;;21.13;13.40;;;2.10;99.90;;;;;;5054318;28;20045;-83
2021/12/07 03:45:32;;;;;;;20.63;13.40;;;2.10;99.90;;;;;;5054244;28;20044;-83
2021/12/07 03:47:58;;;;;;;21.45;14.38;;;2.10;99.90;;;;;;5053942;28;20054;-83
2021/12/07 03:50:24;;;;;;;20.15;13.50;;;2.10;99.90;;;;;;5037827;28;20045;-83
2021/12/07 03:52:50;;;;;;;22.88;14.55;;;2.10;99.90;;;;;;5053860;28;20048;-83
2021/12/07 03:55:16;;;;;;;21.33;13.82;;;2.10;99.90;;;;;;5036322;28;20044;-83
2021/12/07 03:57:42;;;;;;;24.20;15.40;;;2.10;99.90;;;;;;5036383;28;20043;-83
2021/12/07 04:00:16;;;;;;;23.92;15.07;;;2.10;99.90;;;;;;5036695;28;20032;-83
2021/12/07 04:02:44;;;;;;;23.55;13.98;;;2.10;99.90;;;;;;5053176;28;20043;-83
2021/12/07 04:05:17;;;;;;;23.30;15.07;;;2.10;99.90;;;;;;5053499;28;20036;-83
2021/12/07 04:07:43;;;;;;;22.55;13.85;;;2.10;99.90;;;;;;5053900;28;20093;-83
2021/12/07 04:10:12;;;;;;;22.52;14.25;;;2.10;99.90;;;;;;5053307;28;20043;-83
2021/12/07 04:12:37;;;;;;;21.50;14.27;;;2.00;99.90;;;;;;5053416;28;20773;-83
2021/12/07 04:15:08;;;;;;;23.48;14.65;;;2.00;99.90;;;;;;5036360;28;20051;-83
2021/12/07 04:17:35;;;;;;;23.45;14.57;;;2.00;99.90;;;;;;5053212;28;20043;-83
2021/12/07 04:20:02;;;;;;;24.10;15.32;;;2.00;99.90;;;;;;5053661;28;20040;-83
2021/12/07 04:22:27;;;;;;;22.73;15.02;;;2.10;99.90;;;;;;5053604;28;20572;-83
2021/12/07 04:24:53;;;;;;;21.00;13.40;;;2.00;99.90;;;;;;5035642;28;20127;-83
2021/12/07 04:27:19;;;;;;;23.27;14.38;;;2.10;99.90;;;;;;5053002;28;20041;-83
2021/12/07 04:29:45;;;;;;;23.77;14.52;;;2.10;99.90;;;;;;5053244;28;20132;-83
2021/12/07 04:32:11;;;;;;;24.50;14.55;;;2.10;99.90;;;;;;5053035;28;20037;-83
2021/12/07 04:34:37;;;;;;;22.38;13.77;;;2.10;99.90;;;;;;5052824;28;20033;-83
2021/12/07 04:37:03;;;;;;;24.42;14.77;;;2.10;99.90;;;;;;5053380;28;20117;-83
2021/12/07 04:39:29;;;;;;;23.63;14.48;;;2.10;99.90;;;;;;5052757;28;20481;-83
2021/12/07 04:41:54;;;;;;;24.70;15.20;;;2.10;99.90;;;;;;5071074;28;20040;-83
2021/12/07 04:44:22;;;;;;;23.17;15.13;;;2.10;99.90;;;;;;5053171;28;20032;-83
2021/12/07 04:47:06;;;;;;;22.08;14.55;;;2.10;99.90;;;;;;5053113;28;20048;-83
2021/12/07 04:50:06;;;;;;;20.83;12.90;;;2.10;99.90;;;;;;5037426;28;20104;-83
2021/12/07 04:58:00;;;;;;;21.00;12.65;;;2.00;99.90;;;;;;5052657;28;20044;-83
2021/12/07 05:00:28;;;;;;;24.00;13.73;;;2.00;99.90;;;;;;5052796;28;20134;-83
2021/12/07 05:02:58;;;;;;;23.50;14.13;;;2.00;99.90;;;;;;5052584;28;20044;-83
2021/12/07 05:05:29;;;;;;;23.88;14.45;;;1.90;99.90;;;;;;5052930;28;20520;-83
2021/12/07 05:07:58;;;;;;;22.45;13.50;;;1.90;99.90;;;;;;5036441;28;20416;-84
2021/12/07 05:13:23;;;;;;;20.92;12.82;;;1.90;99.90;;;;;;5052447;28;20052;-84
2021/12/07 05:40:05;;;;;;;19.15;11.05;;;1.80;99.90;;;;;;5051965;28;20044;-83
2021/12/07 05:42:31;;;;;;;19.38;11.15;;;1.80;99.90;;;;;;5051908;28;20055;-83
2021/12/07 05:44:56;;;;;;;21.10;11.57;;;1.80;99.90;;;;;;5035184;28;20048;-83
2021/12/07 05:47:23;;;;;;;19.63;10.88;;;1.80;99.90;;;;;;5051772;28;20036;-83
2021/12/07 05:49:49;;;;;;;20.90;11.68;;;1.80;99.90;;;;;;5035122;28;20036;-83
2021/12/07 05:52:14;;;;;;;22.42;10.68;;;1.80;99.90;;;;;;5052162;28;20045;-83
2021/12/07 05:54:40;;;;;;;22.25;11.52;;;1.80;99.90;;;;;;5051445;28;20041;-83
2021/12/07 05:57:06;;;;;;;18.58;10.50;;;1.80;99.90;;;;;;5052434;28;20048;-83
2021/12/07 05:59:32;;;;;;;19.42;10.95;;;1.80;99.90;;;;;;5051929;28;20552;-83
2021/12/07 06:01:58;;;;;;;22.13;11.55;;;1.80;99.90;;;;;;5034927;28;20040;-84
2021/12/07 06:04:23;;;;;;;22.23;11.60;;;1.80;99.90;;;;;;5035260;28;20086;-83
2021/12/07 06:06:49;;;;;;;17.50;9.77;;;1.90;99.90;;;;;;5052442;28;20044;-84
2021/12/07 06:09:15;;;;;;;16.17;9.45;;;1.80;99.90;;;;;;5051863;28;20040;-83
2021/12/07 06:11:42;;;;;;;20.08;10.77;;;1.80;99.90;;;;;;5052152;28;20051;-84
2021/12/07 06:14:11;;;;;;;18.33;10.80;;;1.80;99.90;;;;;;5035274;28;20041;-84
2021/12/07 06:16:37;;;;;;;20.88;11.13;;;1.80;99.90;;;;;;5051843;28;20672;-83
2021/12/07 06:19:02;;;;;;;19.23;10.52;;;1.90;99.90;;;;;;5051380;28;20041;-84
2021/12/07 06:21:29;;;;;;;23.67;11.00;;;1.90;99.90;;;;;;5052124;28;20132;-84
2021/12/07 06:23:55;;;;;;;25.02;12.52;;;1.90;99.90;;;;;;5065829;28;20121;-84
2021/12/07 06:26:21;;;;;;;21.55;11.05;;;1.90;99.90;;;;;;5075613;28;20044;-84
2021/12/07 06:28:47;;;;;;;18.83;10.98;;;1.90;99.90;;;;;;5059367;28;20055;-84
2021/12/07 06:31:13;;;;;;;19.48;10.43;;;1.90;99.90;;;;;;5075353;28;20405;-84
2021/12/07 06:33:38;;;;;;;20.45;10.40;;;1.90;99.90;;;;;;5058700;28;20088;-83
2021/12/07 06:36:05;;;;;;;19.10;11.02;;;1.80;99.90;;;;;;5058931;28;20028;-84
2021/12/07 06:38:33;;;;;;;20.98;11.25;;;1.80;99.90;;;;;;5075142;28;20036;-83
2021/12/07 06:41:01;;;;;;;19.35;10.07;;;1.80;99.90;;;;;;5076144;28;20404;-83
2021/12/07 06:43:26;;;;;;;22.42;10.45;;;1.80;99.90;;;;;;5071773;28;20040;-83
2021/12/07 06:45:53;;;;;;;18.63;10.63;;;1.80;99.90;;;;;;5074701;28;20055;-84
2021/12/07 06:48:19;;;;;;;19.63;11.25;;;1.80;99.90;;;;;;5058971;28;20507;-83
2021/12/07 06:50:44;;;;;;;19.55;11.65;;;1.80;99.90;;;;;;5075270;28;20036;-83
2021/12/07 06:53:10;;;;;;;19.15;10.15;;;1.80;99.90;;;;;;5058259;28;20047;-81
2021/12/07 06:55:36;;;;;;;21.67;10.95;;;1.80;99.90;;;;;;5054156;28;20037;-82
2021/12/07 06:58:03;;;;;;;21.67;11.35;;;1.80;99.90;;;;;;5053212;28;20115;-82
2021/12/07 07:00:29;;;;;;;20.98;11.43;;;1.80;99.90;;;;;;5068130;28;20044;-82
2021/12/07 07:02:55;;;;;;;22.23;12.35;;;1.80;99.90;;;;;;5073101;28;20036;-83
2021/12/07 07:05:21;;;;;;;24.40;12.52;;;1.80;99.90;;;;;;5074988;28;20039;-83
2021/12/07 07:07:46;;;;;;;26.80;12.88;;;1.80;99.90;;;;;;5058684;28;20035;-83
2021/12/07 07:10:15;;;;;;;21.00;11.75;;;1.80;99.90;;;;;;5048017;28;20536;-83
2021/12/07 07:12:41;;;;;;;21.92;12.23;;;1.80;99.90;;;;;;5054551;28;20109;-83
2021/12/07 07:15:08;;;;;;;36.53;14.75;;;1.80;99.90;;;;;;5037052;28;20092;-83
2021/12/07 07:17:34;;;;;;;23.25;12.13;;;1.80;99.90;;;;;;5054717;28;20612;-82
2021/12/07 07:19:59;;;;;;;22.15;11.48;;;1.80;99.90;;;;;;5054915;28;20052;-83
2021/12/07 07:22:25;;;;;;;22.75;11.35;;;1.80;99.90;;;;;;5055029;28;20090;-83
2021/12/07 07:24:51;;;;;;;22.95;11.63;;;1.80;99.90;;;;;;5054255;28;20056;-83
2021/12/07 07:27:16;;;;;;;24.13;10.93;;;1.80;99.90;;;;;;5054972;28;20044;-84
2021/12/07 07:29:42;;;;;;;21.58;10.68;;;1.80;99.90;;;;;;5038245;28;20069;-83
2021/12/07 07:32:08;;;;;;;22.48;11.73;;;1.80;99.90;;;;;;5050962;28;20454;-83
2021/12/07 07:34:33;;;;;;;19.77;10.93;;;1.80;99.90;;;;;;5050400;28;20048;-83
2021/12/07 07:36:59;;;;;;;24.08;11.93;;;1.80;99.90;;;;;;5050370;28;20037;-83
2021/12/07 07:39:25;;;;;;;24.30;12.30;;;1.80;99.90;;;;;;5050274;28;20037;-83
2021/12/07 07:41:51;;;;;;;21.60;10.73;;;1.80;99.90;;;;;;5050960;28;20045;-83
2021/12/07 07:44:17;;;;;;;19.70;10.13;;;1.80;99.90;;;;;;5034101;28;20399;-83
2021/12/07 07:46:43;;;;;;;22.10;11.00;;;1.80;99.90;;;;;;5051366;28;20052;-83
2021/12/07 07:49:08;;;;;;;18.80;10.45;;;1.80;99.90;;;;;;5051320;28;20044;-83
2021/12/07 07:51:35;;;;;;;24.70;10.82;;;1.90;99.90;;;;;;5034154;28;20053;-83
2021/12/07 07:54:02;;;;;;;19.70;10.30;;;1.80;99.90;;;;;;5050485;28;20127;-83
2021/12/07 07:56:29;;;;;;;19.73;9.98;;;1.90;99.90;;;;;;5050473;28;20071;-83
2021/12/07 07:58:55;;;;;;;24.58;10.45;;;1.80;99.90;;;;;;5033700;28;20086;-84
2021/12/07 08:01:23;;;;;;;21.80;10.65;;;1.90;99.90;;;;;;5033872;28;20132;-83
2021/12/07 08:03:52;;;;;;;19.10;9.35;;;1.90;99.90;;;;;;5034314;28;20047;-83
2021/12/07 08:06:18;;;;;;;21.80;11.00;;;1.90;99.90;;;;;;5049564;28;20041;-83
2021/12/07 08:08:44;;;;;;;25.52;10.68;;;2.00;99.90;;;;;;5033825;28;20059;-83
2021/12/07 08:11:09;;;;;;;19.55;11.00;;;2.00;99.90;;;;;;5051636;28;20074;-83
2021/12/07 08:13:35;;;;;;;22.27;10.60;;;2.00;99.90;;;;;;5032953;28;20067;-83
2021/12/07 08:16:01;;;;;;;22.75;11.00;;;2.00;99.90;;;;;;5049731;28;20068;-84
2021/12/07 08:18:26;;;;;;;25.50;10.68;;;2.10;99.90;;;;;;5033349;28;20041;-84
2021/12/07 08:20:52;;;;;;;24.75;12.15;;;2.10;99.90;;;;;;5046882;28;20025;-83
2021/12/07 08:23:17;;;;;;;22.67;10.05;;;2.10;99.90;;;;;;5047290;28;20771;-83
2021/12/07 08:25:47;;;;;;;22.35;10.82;;;2.10;99.90;;;;;;5053653;28;20555;-83
2021/12/07 08:28:14;;;;;;;22.67;10.32;;;2.20;99.90;;;;;;5039193;28;20045;-83
2021/12/07 08:30:41;;;;;;;20.88;9.88;;;2.20;99.90;;;;;;5030477;28;20452;-83
2021/12/07 08:33:07;;;;;;;20.67;10.48;;;2.30;99.90;;;;;;5032022;28;20041;-83
2021/12/07 08:35:33;;;;;;;22.58;10.10;;;2.30;99.90;;;;;;5042197;28;20545;-82
2021/12/07 08:37:59;;;;;;;21.02;10.85;;;2.30;99.90;;;;;;5052404;28;20051;-82
2021/12/07 08:40:28;;;;;;;22.80;11.25;;;2.30;99.90;;;;;;5035946;28;20442;-83
2021/12/07 08:42:54;;;;;;;18.52;10.13;;;2.40;99.90;;;;;;5051790;28;20044;-83
2021/12/07 08:45:22;;;;;;;23.63;10.10;;;2.40;99.90;;;;;;5052516;28;20121;-83
2021/12/07 08:47:48;;;;;;;26.75;11.32;;;2.40;99.90;;;;;;5052779;28;20062;-83
2021/12/07 08:50:18;;;;;;;24.02;11.25;;;2.50;99.90;;;;;;5053442;28;20044;-83
2021/12/07 08:52:45;;;;;;;23.52;10.10;;;2.50;99.90;;;;;;5070291;28;20409;-82
2021/12/07 09:00:25;;;;;;;22.45;10.82;;;2.60;99.90;;;;;;5052035;28;20040;-83
2021/12/07 09:02:51;;;;;;;25.10;11.88;;;2.60;99.90;;;;;;5052960;28;20097;-83
2021/12/07 09:05:17;;;;;;;22.52;11.57;;;2.60;99.90;;;;;;5042558;28;20037;-83
2021/12/07 09:07:44;;;;;;;24.63;11.98;;;2.70;99.90;;;;;;5041167;28;20051;-83
2021/12/07 09:10:10;;;;;;;25.05;12.23;;;2.70;99.90;;;;;;5046535;28;20061;-83
2021/12/07 09:12:35;;;;;;;24.30;12.65;;;2.70;99.90;;;;;;5052952;28;20527;-83
2021/12/07 09:15:01;;;;;;;22.20;11.95;;;2.80;99.90;;;;;;5052595;28;20044;-83
2021/12/07 09:17:27;;;;;;;29.38;11.82;;;2.80;99.90;;;;;;5070839;28;20075;-84
2021/12/07 09:19:53;;;;;;;21.92;11.68;;;2.80;99.90;;;;;;5070555;28;20498;-83
2021/12/07 09:22:19;;;;;;;22.20;11.13;;;2.90;99.90;;;;;;5070617;28;20136;-84
2021/12/07 09:24:45;;;;;;;23.27;10.95;;;2.90;99.90;;;;;;5051189;28;20123;-83
2021/12/07 09:27:10;;;;;;;20.80;9.98;;;3.00;99.90;;;;;;5070928;28;20041;-83
2021/12/07 09:29:37;;;;;;;23.70;10.45;;;3.00;99.90;;;;;;5052762;28;20045;-82
2021/12/07 09:32:04;;;;;;;22.60;10.63;;;3.00;99.90;;;;;;5049140;28;20052;-83
2021/12/07 09:34:30;;;;;;;23.05;10.07;;;3.10;99.90;;;;;;5032170;28;20047;-83
2021/12/07 09:36:55;;;;;;;23.95;9.13;;;3.10;99.90;;;;;;5049132;28;20033;-83
2021/12/07 09:39:21;;;;;;;21.58;9.25;;;3.10;99.90;;;;;;5031674;28;20041;-83
2021/12/07 09:41:47;;;;;;;21.70;9.18;;;3.20;99.90;;;;;;5047761;28;20044;-83
2021/12/07 09:44:13;;;;;;;19.15;8.15;;;3.20;99.90;;;;;;5047826;28;20036;-83
2021/12/07 09:46:40;;;;;;;20.75;8.63;;;3.30;99.90;;;;;;5048974;28;20037;-82
2021/12/07 09:49:07;;;;;;;16.20;7.97;;;3.30;99.90;;;;;;5049471;28;20064;-83
2021/12/07 09:51:33;;;;;;;20.77;8.65;;;3.40;99.90;;;;;;5049064;28;20056;-83
2021/12/07 09:54:00;;;;;;;17.70;8.30;;;3.50;99.90;;;;;;5049097;28;20051;-83
2021/12/07 09:56:26;;;;;;;24.70;9.07;;;3.50;99.90;;;;;;5033273;28;20036;-82
2021/12/07 09:58:54;;;;;;;17.85;7.88;;;3.60;99.90;;;;;;5052909;28;20043;-83
2021/12/07 10:01:21;;;;;;;18.08;7.28;;;3.60;99.90;;;;;;5052735;28;20099;-83
2021/12/07 10:03:47;;;;;;;18.65;6.82;;;3.70;99.90;;;;;;5037153;28;20091;-83
2021/12/07 10:06:14;;;;;;;15.93;7.88;;;3.70;99.90;;;;;;5035417;28;20076;-83
2021/12/07 10:08:39;;;;;;;17.35;6.97;;;3.80;99.90;;;;;;5053329;28;20525;-83
2021/12/07 10:11:09;;;;;;;19.60;7.63;;;3.80;99.90;;;;;;5036288;28;20041;-83
2021/12/07 10:13:34;;;;;;;17.45;6.65;;;3.80;99.90;;;;;;5052265;28;20041;-83
2021/12/07 10:16:05;;;;;;;19.30;6.40;;;3.90;99.90;;;;;;5051939;28;20044;-82
2021/12/07 10:18:36;;;;;;;16.85;6.75;;;3.90;99.90;;;;;;5051874;28;20079;-83
2021/12/07 10:21:18;;;;;;;16.42;6.95;;;4.00;99.90;;;;;;5051873;28;20090;-83
2021/12/07 10:23:51;;;;;;;19.42;6.93;;;4.00;99.90;;;;;;5037434;28;20036;-83
2021/12/07 10:26:18;;;;;;;20.33;7.38;;;4.10;99.90;;;;;;5043144;28;20037;-83
2021/12/07 10:28:43;;;;;;;18.00;7.40;;;4.10;99.90;;;;;;5040982;28;20490;-82
2021/12/07 10:31:09;;;;;;;16.67;6.47;;;4.10;99.90;;;;;;5039647;28;20051;-83
2021/12/07 10:33:38;;;;;;;16.42;7.22;;;4.20;99.90;;;;;;5051852;28;20387;-83
2021/12/07 10:36:08;;;;;;;17.85;7.72;;;4.30;99.90;;;;;;5019476;28;20083;-83
2021/12/07 10:38:37;;;;;;;18.88;7.80;;;4.30;99.90;;;;;;5035737;28;20076;-83
2021/12/07 10:41:11;;;;;;;18.80;7.57;;;4.30;99.90;;;;;;5035537;28;20584;-82
2021/12/07 10:43:54;;;;;;;18.17;6.97;;;4.40;99.90;;;;;;5050616;28;20036;-83
2021/12/07 10:46:26;;;;;;;;;;;4.40;99.90;;;;;;5076174;28;20047;-83
2021/12/07 10:49:08;;;;;;;15.57;7.25;;;4.50;99.90;;;;;;5075690;28;19923;-83
2021/12/07 10:51:34;;;;;;;17.20;6.78;;;4.70;99.90;;;;;;5058917;28;20117;-83
2021/12/07 10:54:00;;;;;;;16.88;6.78;;;4.70;99.90;;;;;;5074981;28;20067;-83
2021/12/07 10:56:37;;;;;;;17.80;7.60;;;4.80;99.90;;;;;;5068615;28;20467;-82
2021/12/07 10:59:06;;;;;;;17.27;6.90;;;4.90;99.90;;;;;;5029376;28;20094;-82
2021/12/07 11:01:36;;;;;;;19.15;6.50;;;5.00;99.90;;;;;;5045707;28;20043;-82
2021/12/07 11:04:33;;;;;;;20.42;7.63;;;5.10;99.90;;;;;;5053692;28;20039;-84
2021/12/07 11:07:13;;;;;;;16.25;6.43;;;5.20;99.90;;;;;;5069088;28;20088;-84
2021/12/07 11:09:48;;;;;;;21.25;7.20;;;5.40;99.90;;;;;;5017303;28;20091;-83
2021/12/07 11:12:18;;;;;;;15.85;7.20;;;5.50;99.90;;;;;;5017193;28;20045;-83
2021/12/07 11:14:53;;;;;;;18.92;7.13;;;5.60;99.90;;;;;;5034975;28;20041;-84
2021/12/07 11:17:26;;;;;;;21.42;7.80;;;5.70;99.90;;;;;;5034967;28;20083;-84
2021/12/07 11:19:52;;;;;;;;;;;5.80;99.90;;;;;;5035055;28;20044;-84
2021/12/07 11:22:22;;;;;;;14.73;6.97;;;5.90;99.90;;;;;;5051495;28;19921;-84
2021/12/07 11:24:48;;;;;;;18.00;6.60;;;6.00;99.90;;;;;;5034748;28;20087;-84
2021/12/07 11:30:27;;;;;;;13.68;7.10;;;6.20;99.90;;;;;;5054946;28;20044;-83
2021/12/07 11:32:56;;;;;;;19.70;7.30;;;6.20;99.90;;;;;;5054733;28;20048;-84
2021/12/07 11:35:33;;;;;;;16.95;6.47;;;6.20;99.90;;;;;;5037843;28;20509;-84
2021/12/07 11:38:05;;;;;;;15.30;6.43;;;6.20;99.90;;;;;;5054934;28;20044;-83
2021/12/07 11:40:34;;;;;;;18.33;7.30;;;6.30;99.90;;;;;;5054153;28;20040;-84
2021/12/07 11:43:00;;;;;;;22.25;7.63;;;6.40;99.90;;;;;;5054817;28;20044;-84
2021/12/07 11:45:28;;;;;;;21.10;6.90;;;6.40;99.90;;;;;;5054205;28;20046;-84
2021/12/07 11:47:56;;;;;;;19.80;7.47;;;6.60;99.90;;;;;;5037971;28;20742;-84
2021/12/07 11:50:36;;;;;;;18.65;6.88;;;6.90;99.90;;;;;;5054612;28;20186;-84
2021/12/07 11:53:23;;;;;;;16.17;6.72;;;7.30;99.90;;;;;;5072222;28;20401;-84
2021/12/07 11:55:54;;;;;;;17.77;6.97;;;7.90;99.90;;;;;;5054108;28;20051;-84
2021/12/07 11:58:20;;;;;;;17.73;6.35;;;8.40;99.90;;;;;;5054530;28;20037;-84
2021/12/07 12:00:54;;;;;;;15.50;6.35;;;9.10;99.90;;;;;;5054677;28;20032;-84
2021/12/07 12:03:22;;;;;;;18.80;6.28;;;9.50;99.90;;;;;;5071165;28;20597;-84
2021/12/07 12:05:49;;;;;;;14.23;6.35;;;9.90;99.90;;;;;;5055311;28;20083;-78
2021/12/07 12:08:19;;;;;;;20.65;5.88;;;10.60;99.90;;;;;;5076795;28;20051;-83
2021/12/07 12:10:49;;;;;;;16.08;5.38;;;11.50;99.90;;;;;;5037248;28;20036;-82
2021/12/07 12:13:17;;;;;;;14.85;5.68;;;12.10;99.90;;;;;;5054117;28;20047;-83
2021/12/07 12:16:02;;;;;;;17.05;5.05;;;12.70;99.90;;;;;;5037470;28;20093;-83
2021/12/07 12:18:46;;;;;;;13.85;5.72;;;13.30;99.90;;;;;;5038768;28;20041;-84
2021/12/07 12:21:36;;;;;;;12.90;5.25;;;14.00;99.90;;;;;;5053497;28;20035;-82
2021/12/07 12:24:39;;;;;;;14.38;4.88;;;14.60;95.60;;;;;;5036038;28;20044;-84
2021/12/07 12:27:21;;;;;;;16.02;5.05;;;15.10;94.60;;;;;;5037520;28;20044;-84
2021/12/07 12:29:50;;;;;;;15.13;5.07;;;15.50;93.90;;;;;;5036631;28;20391;-84
2021/12/07 12:32:36;;;;;;;13.20;5.13;;;15.40;93.10;;;;;;5052947;28;20041;-85
2021/12/07 12:35:04;;;;;;;14.77;4.70;;;15.60;90.90;;;;;;5052836;28;20044;-84
2021/12/07 12:37:31;;;;;;;12.55;4.70;;;15.50;91.40;;;;;;5053263;28;20461;-84
2021/12/07 12:39:59;;;;;;;13.35;4.65;;;15.50;90.60;;;;;;5033106;28;20037;-84
2021/12/07 12:42:42;;;;;;;12.15;4.20;;;15.60;89.00;;;;;;5033645;28;20145;-85
2021/12/07 12:45:20;;;;;;;13.52;4.28;;;15.90;87.90;;;;;;5049733;28;20159;-84
2021/12/07 12:47:55;;;;;;;12.68;4.75;;;16.20;84.90;;;;;;5028062;28;20121;-84
2021/12/07 12:50:34;;;;;;;12.70;4.22;;;16.60;79.10;;;;;;5043943;28;20029;-85
2021/12/07 12:53:02;;;;;;;11.60;4.35;;;16.80;79.40;;;;;;5052406;28;20047;-85
2021/12/07 12:55:51;;;;;;;12.15;4.28;;;16.80;77.30;;;;;;5052470;28;20040;-85
2021/12/07 12:58:37;;;;;;;13.57;4.20;;;16.80;75.00;;;;;;5081015;28;20044;-85
2021/12/07 13:01:08;;;;;;;14.63;4.28;;;16.70;75.10;;;;;;5091237;28;20036;-84
2021/12/07 13:03:43;;;;;;;13.98;4.95;;;16.50;74.90;;;;;;5072387;28;20266;-85
2021/12/07 13:06:13;;;;;;;14.30;4.10;;;16.00;72.00;;;;;;5072595;28;20047;-84
2021/12/07 13:09:01;;;;;;;15.00;4.45;;;15.90;77.20;;;;;;5072681;28;20051;-84
2021/12/07 13:11:31;;;;;;;13.55;4.82;;;15.60;76.60;;;;;;5055519;28;20047;-85
2021/12/07 13:13:56;;;;;;;14.48;4.88;;;15.50;77.30;;;;;;5055915;28;20035;-85
2021/12/07 13:16:22;;;;;;;14.82;5.30;;;15.40;77.30;;;;;;5072810;28;20566;-85
2021/12/07 13:18:48;;;;;;;15.25;4.85;;;15.50;77.60;;;;;;5072484;28;20044;-84
2021/12/07 13:21:23;;;;;;;13.50;5.00;;;15.60;77.50;;;;;;5056289;28;20042;-85
2021/12/07 13:24:01;;;;;;;14.38;4.82;;;15.60;76.60;;;;;;5054905;28;20044;-85
2021/12/07 13:26:31;;;;;;;14.73;4.35;;;15.60;75.10;;;;;;5055889;28;20067;-85
2021/12/07 13:29:22;;;;;;;13.00;4.70;;;15.60;76.10;;;;;;5072428;28;20119;-85
2021/12/07 13:31:54;;;;;;;13.85;5.30;;;15.60;74.80;;;;;;5072329;28;20044;-85
2021/12/07 13:34:31;;;;;;;13.38;5.00;;;15.40;74.70;;;;;;5072191;28;20028;-84
2021/12/07 13:37:02;;;;;;;13.95;5.13;;;15.20;75.40;;;;;;5072407;28;20405;-85
2021/12/07 13:39:47;;;;;;;16.40;5.63;;;14.90;77.20;;;;;;5072638;28;20036;-85
2021/12/07 13:42:20;;;;;;;15.38;5.30;;;14.70;77.30;;;;;;5068884;28;20519;-85
2021/12/07 13:45:05;;;;;;;13.85;5.57;;;14.50;76.50;;;;;;5054854;28;20043;-85
2021/12/07 13:47:37;;;;;;;12.70;5.88;;;14.30;79.10;;;;;;5072095;28;20040;-85
2021/12/07 13:50:09;;;;;;;16.40;6.35;;;14.00;80.70;;;;;;5071831;28;20435;-85
2021/12/07 13:52:44;;;;;;;17.85;5.30;;;13.80;81.80;;;;;;5055518;28;20040;-85
2021/12/07 13:55:19;;;;;;;16.65;5.75;;;13.70;81.70;;;;;;5072482;28;20032;-85
2021/12/07 13:57:49;;;;;;;16.15;5.40;;;13.50;81.50;;;;;;5072754;28;20388;-84
2021/12/07 14:00:18;;;;;;;15.02;6.05;;;13.30;83.40;;;;;;5073041;28;20036;-85
2021/12/07 14:02:50;;;;;;;14.07;6.22;;;13.00;84.20;;;;;;5065173;28;20056;-84
2021/12/07 14:05:20;;;;;;;15.30;5.77;;;12.70;85.90;;;;;;5032040;28;20108;-83
2021/12/07 14:07:48;;;;;;;15.70;6.80;;;12.30;88.50;;;;;;5040332;28;20037;-84
2021/12/07 14:10:16;;;;;;;13.02;5.72;;;11.90;90.70;;;;;;5035668;28;20485;-85
2021/12/07 14:12:43;;;;;;;14.02;5.95;;;11.60;91.20;;;;;;5042908;28;20106;-84
2021/12/07 14:15:14;;;;;;;12.98;6.18;;;11.30;92.10;;;;;;5015848;28;20037;-85
2021/12/07 14:17:47;;;;;;;15.10;6.05;;;11.00;93.00;;;;;;5032336;28;20065;-83
2021/12/07 14:20:13;;;;;;;13.43;5.88;;;10.70;93.90;;;;;;5016382;28;20037;-85
2021/12/07 14:22:44;;;;;;;15.43;6.20;;;10.50;94.80;;;;;;5050238;28;20040;-84
2021/12/07 14:25:17;;;;;;;15.20;6.50;;;10.30;95.30;;;;;;5051516;28;20044;-85